createdAt,value
2017-08-09T00:01:41.930Z,80.80
2017-08-09T00:04:10.184Z,80.20
2017-08-09T00:06:39.230Z,80.10
2017-08-09T00:09:07.491Z,80.10
2017-08-09T00:11:35.736Z,79.80
2017-08-09T00:17:05.508Z,83.20
2017-08-09T00:19:33.754Z,83.10
2017-08-09T00:22:02.011Z,81.50
2017-08-09T00:24:31.059Z,81.60
2017-08-09T00:26:59.297Z,81.60
2017-08-09T00:29:27.534Z,81.60
2017-08-09T00:31:55.962Z,82.10
2017-08-09T00:34:24.210Z,83.70
2017-08-09T00:37:10.535Z,83.90
2017-08-09T00:39:41.777Z,83.80
2017-08-09T00:42:10.056Z,84.40
2017-08-09T00:44:38.288Z,85.00
2017-08-09T00:47:07.320Z,89.90
2017-08-09T00:49:35.600Z,89.60
2017-08-09T00:52:03.827Z,86.10
2017-08-09T00:54:32.061Z,85.90
2017-08-09T00:57:11.023Z,88.60
2017-08-09T00:59:39.280Z,86.90
2017-08-09T01:02:07.517Z,89.30
2017-08-09T01:04:35.784Z,87.60
2017-08-09T01:07:04.037Z,88.40
2017-08-09T01:09:32.270Z,90.00
2017-08-09T01:12:00.551Z,89.40
2017-08-09T01:14:28.793Z,90.50
2017-08-09T01:16:57.035Z,90.90
2017-08-09T01:19:25.317Z,89.80
2017-08-09T01:21:54.340Z,90.40
2017-08-09T01:24:22.596Z,90.40
2017-08-09T01:26:51.635Z,90.50
2017-08-09T01:29:19.866Z,90.50
2017-08-09T01:31:48.866Z,91.50
2017-08-09T01:34:17.152Z,91.50
2017-08-09T01:36:45.384Z,91.40
2017-08-09T01:39:14.399Z,92.10
2017-08-09T01:41:43.449Z,91.90
2017-08-09T01:44:11.688Z,91.90
2017-08-09T01:47:09.748Z,91.20
2017-08-09T01:49:37.978Z,91.30
2017-08-09T01:52:06.220Z,91.30
2017-08-09T01:54:34.503Z,91.30
2017-08-09T01:57:02.742Z,91.00
2017-08-09T01:59:31.770Z,91.80
2017-08-09T02:02:00.039Z,91.80
2017-08-09T02:04:28.264Z,91.70
2017-08-09T02:09:57.213Z,91.60
2017-08-09T02:12:25.458Z,91.90
2017-08-09T02:14:54.457Z,91.80
2017-08-09T02:17:23.535Z,92.40
2017-08-09T02:19:51.774Z,92.10
2017-08-09T02:25:20.320Z,92.10
2017-08-09T02:28:09.015Z,92.10
2017-08-09T02:30:37.294Z,91.90
2017-08-09T02:33:05.530Z,92.00
2017-08-09T02:35:34.865Z,91.90
2017-08-09T02:38:03.151Z,91.90
2017-08-09T02:40:31.396Z,92.40
2017-08-09T02:43:00.393Z,92.20
2017-08-09T02:45:28.695Z,92.20
2017-08-09T02:47:56.937Z,92.20
2017-08-09T02:50:25.186Z,92.10
2017-08-09T02:52:53.457Z,92.20
2017-08-09T02:55:21.704Z,92.10
2017-08-09T02:57:49.951Z,92.10
2017-08-09T03:00:18.223Z,92.20
2017-08-09T03:02:46.469Z,92.10
2017-08-09T03:05:14.708Z,92.50
2017-08-09T03:07:42.989Z,92.30
2017-08-09T03:10:11.236Z,92.30
2017-08-09T03:12:39.548Z,92.40
2017-08-09T03:15:07.822Z,92.30
2017-08-09T03:17:36.070Z,92.40
2017-08-09T03:20:04.299Z,92.40
2017-08-09T03:25:11.109Z,92.60
2017-08-09T03:27:39.413Z,92.60
2017-08-09T03:30:07.636Z,92.60
2017-08-09T03:32:35.861Z,92.60
2017-08-09T03:35:04.135Z,92.80
2017-08-09T03:37:32.382Z,94.40
2017-08-09T03:40:01.365Z,93.60
2017-08-09T03:42:30.405Z,94.20
2017-08-09T03:44:58.632Z,94.10
2017-08-09T03:47:27.635Z,93.60
2017-08-09T03:49:56.662Z,94.60
2017-08-09T03:52:31.164Z,94.50
2017-08-09T03:54:59.430Z,94.60
2017-08-09T03:57:27.667Z,93.90
2017-08-09T04:02:57.372Z,94.10
2017-08-09T04:05:25.616Z,94.00
2017-08-09T04:07:53.896Z,93.90
2017-08-09T04:10:22.153Z,93.90
2017-08-09T04:12:51.152Z,94.30
2017-08-09T04:15:19.391Z,94.30
2017-08-09T04:17:47.682Z,94.10
2017-08-09T04:20:15.923Z,94.10
2017-08-09T04:22:44.163Z,94.10
2017-08-09T04:25:12.429Z,94.10
2017-08-09T04:28:07.820Z,94.10
2017-08-09T04:30:36.392Z,94.20
2017-08-09T04:36:05.357Z,96.10
2017-08-09T04:38:33.619Z,95.90
2017-08-09T04:41:01.863Z,95.10
2017-08-09T04:43:30.185Z,94.80
2017-08-09T04:46:11.562Z,97.90
2017-08-09T04:48:39.822Z,95.90
2017-08-09T04:51:08.063Z,95.20
2017-08-09T04:53:36.281Z,95.10
2017-08-09T04:56:04.560Z,97.10
2017-08-09T04:58:32.791Z,96.20
2017-08-09T05:01:01.345Z,95.50
2017-08-09T05:03:29.607Z,95.20
2017-08-09T05:05:57.853Z,95.10
2017-08-09T05:08:26.867Z,99.90
2017-08-09T05:10:55.141Z,99.90
2017-08-09T05:13:23.400Z,96.70
2017-08-09T05:15:51.621Z,99.90
2017-08-09T05:18:19.901Z,98.80
2017-08-09T05:20:48.135Z,99.90
2017-08-09T05:23:16.398Z,99.90
2017-08-09T05:25:44.680Z,99.90
2017-08-09T05:31:13.847Z,99.90
2017-08-09T05:33:42.090Z,99.90
2017-08-09T05:36:10.337Z,99.90
2017-08-09T05:39:08.806Z,99.90
2017-08-09T05:41:37.045Z,99.90
2017-08-09T05:44:05.279Z,99.90
2017-08-09T05:46:33.575Z,99.90
2017-08-09T05:49:01.817Z,99.90
2017-08-09T05:51:30.843Z,99.90
2017-08-09T05:53:59.146Z,99.90
2017-08-09T05:56:27.378Z,99.90
2017-08-09T05:58:55.640Z,99.90
2017-08-09T06:01:24.694Z,99.90
2017-08-09T06:03:52.940Z,99.90
2017-08-09T06:06:21.190Z,99.90
2017-08-09T06:08:50.238Z,99.90
2017-08-09T06:11:18.491Z,99.90
2017-08-09T06:13:46.782Z,99.90
2017-08-09T06:16:15.045Z,99.90
2017-08-09T06:19:09.035Z,99.90
2017-08-09T06:21:37.307Z,99.90
2017-08-09T06:24:11.506Z,99.90
2017-08-09T06:26:39.780Z,99.90
2017-08-09T06:29:08.043Z,99.90
2017-08-09T06:31:36.282Z,99.90
2017-08-09T06:34:04.539Z,99.90
2017-08-09T06:36:32.781Z,99.90
2017-08-09T06:42:01.090Z,99.90
2017-08-09T06:44:29.347Z,99.90
2017-08-09T06:49:58.481Z,99.90
2017-08-09T06:52:26.741Z,99.90
2017-08-09T06:55:09.425Z,99.90
2017-08-09T07:00:39.426Z,99.90
2017-08-09T07:12:09.344Z,99.90
2017-08-09T07:14:50.950Z,99.90
2017-08-09T07:17:19.236Z,99.90
2017-08-09T07:23:09.331Z,99.90
2017-08-09T07:29:08.317Z,99.90
2017-08-09T07:40:55.575Z,99.90
2017-08-09T08:01:16.420Z,95.40
2017-08-09T08:03:48.090Z,95.70
2017-08-09T08:06:16.339Z,94.00
2017-08-09T08:15:08.665Z,92.10
2017-08-09T08:24:07.812Z,91.30
2017-08-09T08:32:37.265Z,90.20
2017-08-09T08:38:05.787Z,90.50
2017-08-09T08:40:34.034Z,90.70
2017-08-09T08:43:02.283Z,90.20
2017-08-09T08:45:30.667Z,91.20
2017-08-09T08:47:58.937Z,89.00
2017-08-09T08:50:27.163Z,90.10
2017-08-09T08:53:09.384Z,90.20
2017-08-09T08:55:38.407Z,90.40
2017-08-09T08:58:06.664Z,90.40
2017-08-09T09:00:34.966Z,90.70
2017-08-09T09:03:03.219Z,90.90
2017-08-09T09:05:31.458Z,88.50
2017-08-09T09:08:09.970Z,86.90
2017-08-09T09:10:38.205Z,79.40
2017-08-09T09:13:06.454Z,82.50
2017-08-09T09:15:34.816Z,83.30
2017-08-09T09:18:03.825Z,81.50
2017-08-09T09:26:33.439Z,80.60
2017-08-09T09:29:01.699Z,80.40
2017-08-09T09:31:29.946Z,79.70
2017-08-09T09:33:58.531Z,79.50
2017-08-09T09:36:26.770Z,80.70
2017-08-09T09:38:55.770Z,79.90
2017-08-09T09:41:24.836Z,81.20
2017-08-09T09:43:53.108Z,81.20
2017-08-09T09:46:21.340Z,81.20
2017-08-09T09:54:50.072Z,82.60
2017-08-09T09:57:18.313Z,83.70
2017-08-09T09:59:46.554Z,83.60
2017-08-09T10:02:14.818Z,84.50
2017-08-09T10:05:09.094Z,81.80
2017-08-09T10:10:38.026Z,83.70
2017-08-09T10:13:06.260Z,84.60
2017-08-09T10:15:34.511Z,84.70
2017-08-09T10:21:02.573Z,83.30
2017-08-09T10:23:31.589Z,82.80
2017-08-09T10:25:59.831Z,82.80
2017-08-09T10:28:28.084Z,82.20
2017-08-09T10:34:10.217Z,82.70
2017-08-09T10:39:40.031Z,78.90
2017-08-09T10:42:08.635Z,78.90
2017-08-09T10:47:37.541Z,77.00
2017-08-09T10:50:05.815Z,78.80
2017-08-09T10:52:34.045Z,77.20
2017-08-09T10:55:02.453Z,77.80
2017-08-09T10:57:30.686Z,77.40
2017-08-09T10:59:59.696Z,74.90
2017-08-09T11:02:27.995Z,74.80
2017-08-09T11:04:56.221Z,74.00
2017-08-09T11:07:25.221Z,73.10
2017-08-09T11:09:54.288Z,74.70
2017-08-09T11:12:22.540Z,74.70
2017-08-09T11:15:10.885Z,73.10
2017-08-09T11:17:39.116Z,71.10
2017-08-09T11:20:07.351Z,71.20
2017-08-09T11:22:35.610Z,71.40
2017-08-09T11:25:03.861Z,71.00
2017-08-09T11:27:32.092Z,69.50
2017-08-09T11:30:00.387Z,69.60
2017-08-09T11:32:29.379Z,70.80
2017-08-09T11:34:58.397Z,69.30
2017-08-09T11:37:26.677Z,69.20
2017-08-09T11:39:54.915Z,69.20
2017-08-09T11:42:23.928Z,68.70
2017-08-09T11:44:52.203Z,68.60
2017-08-09T11:47:20.472Z,68.20
2017-08-09T11:49:49.522Z,67.70
2017-08-09T11:52:17.760Z,67.70
2017-08-09T11:54:45.996Z,67.10
2017-08-09T11:57:15.082Z,66.80
2017-08-09T11:59:43.325Z,66.60
2017-08-09T12:02:11.584Z,65.70
2017-08-09T12:04:39.868Z,67.10
2017-08-09T12:07:08.119Z,65.80
2017-08-09T12:12:36.265Z,63.90
2017-08-09T12:15:04.501Z,64.50
2017-08-09T12:17:32.745Z,64.80
2017-08-09T12:20:01.029Z,66.50
2017-08-09T12:22:30.029Z,64.70
2017-08-09T12:24:58.277Z,64.70
2017-08-09T12:27:27.345Z,64.40
2017-08-09T12:29:55.571Z,63.50
2017-08-09T12:32:23.791Z,63.30
2017-08-09T12:34:57.517Z,65.00
2017-08-09T12:37:25.763Z,64.10
2017-08-09T12:40:10.492Z,63.10
2017-08-09T12:42:38.723Z,63.10
2017-08-09T12:45:06.949Z,62.30
2017-08-09T12:47:35.215Z,61.40
2017-08-09T12:52:40.853Z,61.80
2017-08-09T12:55:09.849Z,60.10
2017-08-09T12:57:39.062Z,59.60
2017-08-09T13:00:07.322Z,59.50
2017-08-09T13:02:36.328Z,58.80
2017-08-09T13:05:04.562Z,58.80
2017-08-09T13:07:32.821Z,59.00
2017-08-09T13:10:01.073Z,59.40
2017-08-09T13:12:29.333Z,58.20
2017-08-09T13:14:57.602Z,57.80
2017-08-09T13:17:25.825Z,57.90
2017-08-09T13:20:10.594Z,56.90
2017-08-09T13:22:38.829Z,56.20
2017-08-09T13:25:07.042Z,57.30
2017-08-09T13:27:35.298Z,56.80
2017-08-09T13:30:03.553Z,55.50
2017-08-09T13:32:31.781Z,54.80
2017-08-09T13:35:00.058Z,54.30
2017-08-09T13:37:28.314Z,54.20
2017-08-09T13:39:56.566Z,53.50
2017-08-09T13:42:24.842Z,53.60
2017-08-09T13:44:53.083Z,52.30
2017-08-09T13:47:22.098Z,53.60
2017-08-09T13:49:50.356Z,53.50
2017-08-09T13:52:18.599Z,52.20
2017-08-09T13:54:46.841Z,52.40
2017-08-09T13:57:15.116Z,51.50
2017-08-09T13:59:43.685Z,50.40
2017-08-09T14:02:11.934Z,49.90
2017-08-09T14:04:40.228Z,51.30
2017-08-09T14:07:11.502Z,49.20
2017-08-09T14:09:39.785Z,51.90
2017-08-09T14:12:11.259Z,50.60
2017-08-09T14:14:39.525Z,50.00
2017-08-09T14:17:07.811Z,50.30
2017-08-09T14:19:36.040Z,50.80
2017-08-09T14:22:04.312Z,49.70
2017-08-09T14:24:32.536Z,47.70
2017-08-09T14:27:00.759Z,49.60
2017-08-09T14:29:29.022Z,49.80
2017-08-09T14:31:57.269Z,49.20
2017-08-09T14:34:25.510Z,49.60
2017-08-09T14:36:53.760Z,49.20
2017-08-09T14:39:22.003Z,50.00
2017-08-09T14:41:51.043Z,49.70
2017-08-09T14:47:21.104Z,49.30
2017-08-09T14:49:49.347Z,48.20
2017-08-09T14:52:17.620Z,48.50
2017-08-09T14:54:45.890Z,49.60
2017-08-09T14:57:14.125Z,48.20
2017-08-09T14:59:42.364Z,48.80
2017-08-09T15:02:10.990Z,49.20
2017-08-09T15:04:39.999Z,48.50
2017-08-09T15:07:08.260Z,48.30
2017-08-09T15:09:36.562Z,48.60
2017-08-09T15:12:11.046Z,46.50
2017-08-09T15:18:08.475Z,47.00
2017-08-09T15:23:37.997Z,45.30
2017-08-09T15:26:06.249Z,45.30
2017-08-09T15:28:34.470Z,45.60
2017-08-09T15:31:02.752Z,44.80
2017-08-09T15:33:30.988Z,45.60
2017-08-09T15:35:59.235Z,45.60
2017-08-09T15:41:28.241Z,45.90
2017-08-09T15:43:56.475Z,43.80
2017-08-09T15:49:24.448Z,44.60
2017-08-09T15:51:58.590Z,43.20
2017-08-09T15:57:27.354Z,43.10
2017-08-09T16:00:09.246Z,43.90
2017-08-09T16:02:37.539Z,44.30
2017-08-09T16:11:10.373Z,42.30
2017-08-09T16:16:17.183Z,41.80
2017-08-09T16:18:45.513Z,41.80
2017-08-09T16:24:13.873Z,41.80
2017-08-09T16:26:42.107Z,40.90
2017-08-09T16:29:10.358Z,40.60
2017-08-09T16:32:08.793Z,39.60
2017-08-09T16:34:37.025Z,39.60
2017-08-09T16:37:11.390Z,39.20
2017-08-09T16:39:39.644Z,39.50
2017-08-09T16:42:07.889Z,38.60
2017-08-09T16:57:08.999Z,39.10
2017-08-09T17:03:08.498Z,38.70
2017-08-09T17:12:08.259Z,39.40
2017-08-09T17:17:38.156Z,39.90
2017-08-09T17:20:06.416Z,39.80
2017-08-09T17:22:34.657Z,40.20
2017-08-09T17:25:03.749Z,40.10
2017-08-09T17:27:32.002Z,40.10
2017-08-09T17:30:00.461Z,39.90
2017-08-09T17:38:30.531Z,39.90
2017-08-09T17:40:58.801Z,39.80
2017-08-09T17:43:57.486Z,40.70
2017-08-09T17:49:27.389Z,41.60
2017-08-09T17:52:09.593Z,41.60
2017-08-09T18:04:10.765Z,41.90
2017-08-09T18:27:58.159Z,42.30
2017-08-09T18:30:26.393Z,42.40
2017-08-09T18:32:55.433Z,45.70
2017-08-09T18:35:23.703Z,45.40
2017-08-09T18:37:51.933Z,44.20
2017-08-09T18:43:20.222Z,45.80
2017-08-09T18:45:48.471Z,44.90
2017-08-09T18:48:16.723Z,45.10
2017-08-09T18:50:45.015Z,46.20
2017-08-09T18:53:13.273Z,46.90
2017-08-09T18:56:07.938Z,46.10
2017-08-09T19:04:37.551Z,46.30
2017-08-09T19:07:05.794Z,46.30
2017-08-09T19:15:35.426Z,47.10
2017-08-09T19:18:03.713Z,47.70
2017-08-09T19:20:31.993Z,47.40
2017-08-09T19:23:00.285Z,47.50
2017-08-09T19:28:28.881Z,48.00
2017-08-09T19:31:09.874Z,47.80
2017-08-09T19:36:38.200Z,48.50
2017-08-09T19:42:10.985Z,49.70
2017-08-09T19:47:39.535Z,50.00
2017-08-09T19:50:07.780Z,50.00
2017-08-09T19:52:36.778Z,50.50
2017-08-09T19:55:05.067Z,50.50
2017-08-09T19:57:33.305Z,50.60
2017-08-09T20:00:01.657Z,51.10
2017-08-09T20:02:30.807Z,51.10
2017-08-09T20:04:59.044Z,51.30
2017-08-09T20:07:27.274Z,51.60
2017-08-09T20:09:55.559Z,51.60
2017-08-09T20:12:23.800Z,51.80
2017-08-09T20:15:12.263Z,53.40
2017-08-09T20:17:40.527Z,52.70
2017-08-09T20:23:10.046Z,53.60
2017-08-09T20:25:38.299Z,53.60
2017-08-09T20:37:08.372Z,54.60
2017-08-09T20:39:36.594Z,54.60
2017-08-09T20:45:05.327Z,55.30
2017-08-09T20:47:33.563Z,55.20
2017-08-09T20:53:02.444Z,55.50
2017-08-09T20:55:30.677Z,55.80
2017-08-09T20:57:58.891Z,55.70
2017-08-09T21:00:27.176Z,56.80
2017-08-09T21:05:56.957Z,56.80
2017-08-09T21:08:25.199Z,56.80
2017-08-09T21:10:54.226Z,57.40
2017-08-09T21:13:22.498Z,57.40
2017-08-09T21:15:50.738Z,57.60
2017-08-09T21:18:19.742Z,57.30
2017-08-09T21:20:48.026Z,57.30
2017-08-09T21:23:16.260Z,57.90
2017-08-09T21:25:44.491Z,58.00
2017-08-09T21:28:12.783Z,57.50
2017-08-09T21:30:41.017Z,57.90
2017-08-09T21:33:09.265Z,58.50
2017-08-09T21:35:38.358Z,58.70
2017-08-09T21:38:06.789Z,58.70
2017-08-09T21:40:35.027Z,58.30
2017-08-09T21:43:03.318Z,58.40
2017-08-09T21:45:31.570Z,58.60
2017-08-09T21:47:59.818Z,58.80
2017-08-09T21:50:28.111Z,59.70
2017-08-09T21:52:56.337Z,60.60
2017-08-09T21:55:24.572Z,61.00
2017-08-09T22:03:53.428Z,62.20
2017-08-09T22:06:21.667Z,61.50
2017-08-09T22:08:49.902Z,61.70
2017-08-09T22:11:18.187Z,61.60
2017-08-09T22:13:46.413Z,61.70
2017-08-09T22:16:15.429Z,61.60
2017-08-09T22:18:43.737Z,61.50
2017-08-09T22:21:11.963Z,61.40
2017-08-09T22:23:40.198Z,62.10
2017-08-09T22:32:09.247Z,63.50
2017-08-09T22:34:38.262Z,64.10
2017-08-09T22:37:06.510Z,64.20
2017-08-09T22:42:34.739Z,65.60
2017-08-09T22:45:03.012Z,65.60
2017-08-09T22:47:31.261Z,65.40
2017-08-09T22:50:00.307Z,67.10
2017-08-09T22:52:28.556Z,66.20
2017-08-09T22:55:10.233Z,67.10
2017-08-09T22:57:39.259Z,67.10
2017-08-09T23:00:07.478Z,67.00
2017-08-09T23:02:35.757Z,66.80
2017-08-09T23:05:03.980Z,67.90
2017-08-09T23:07:42.410Z,68.10
2017-08-09T23:10:10.651Z,68.40
2017-08-09T23:12:38.893Z,67.60
2017-08-09T23:15:07.172Z,67.70
2017-08-09T23:17:35.391Z,68.10
2017-08-09T23:20:03.627Z,68.90
2017-08-09T23:25:33.190Z,70.00
2017-08-09T23:28:01.430Z,71.30
2017-08-09T23:30:29.679Z,71.70
2017-08-09T23:32:57.951Z,72.50
2017-08-09T23:41:27.524Z,73.40
2017-08-09T23:46:56.494Z,74.30
2017-08-09T23:49:24.724Z,74.30
2017-08-09T23:51:53.737Z,74.10
2017-08-09T23:54:22.065Z,74.10
2017-08-09T23:56:50.296Z,75.80
2017-08-09T23:59:18.552Z,75.40
